createdAt,value
2019-01-16T00:04:49.326Z,100120.81
2019-01-16T00:10:06.275Z,100098.30
2019-01-16T00:15:26.582Z,100093.95
2019-01-16T00:20:36.804Z,100100.50
2019-01-16T00:25:53.577Z,100095.06
2019-01-16T00:31:03.872Z,100090.84
2019-01-16T00:36:18.168Z,100088.48
2019-01-16T00:41:31.798Z,100097.09
2019-01-16T00:46:55.761Z,100096.44
2019-01-16T00:52:03.174Z,100103.66
2019-01-16T00:57:19.570Z,100106.16
2019-01-16T01:02:35.826Z,100107.50
2019-01-16T01:07:55.378Z,100124.46
2019-01-16T01:13:03.953Z,100154.47
2019-01-16T01:18:15.678Z,100123.80
2019-01-16T01:23:23.768Z,100145.64
2019-01-16T01:28:32.742Z,100135.95
2019-01-16T01:33:48.955Z,100149.25
2019-01-16T01:39:08.590Z,100144.84
2019-01-16T01:44:32.506Z,100158.05
2019-01-16T01:49:40.544Z,100159.92
2019-01-16T01:54:57.087Z,100175.02
2019-01-16T02:00:13.509Z,100189.73
2019-01-16T02:05:27.488Z,100194.72
2019-01-16T02:10:35.130Z,100183.58
2019-01-16T02:15:43.041Z,100174.28
2019-01-16T02:20:54.600Z,100189.73
2019-01-16T02:26:18.523Z,100197.17
2019-01-16T02:31:25.810Z,100202.95
2019-01-16T02:36:39.219Z,100206.97
2019-01-16T02:47:20.041Z,100210.06
2019-01-16T02:52:33.279Z,100212.75
2019-01-16T02:57:53.550Z,100213.65
2019-01-16T03:03:01.734Z,100218.41
2019-01-16T03:08:12.339Z,100217.07
2019-01-16T03:13:20.342Z,100220.36
2019-01-16T03:18:44.988Z,100222.48
2019-01-16T03:23:52.747Z,100219.69
2019-01-16T03:29:12.866Z,100228.15
2019-01-16T03:34:24.867Z,100225.66
2019-01-16T03:39:33.331Z,100228.21
2019-01-16T03:44:50.417Z,100228.23
2019-01-16T03:50:14.647Z,100223.63
2019-01-16T03:55:22.839Z,100225.84
2019-01-16T04:00:45.517Z,100232.48
2019-01-16T04:06:06.753Z,100217.30
2019-01-16T04:11:14.392Z,100228.13
2019-01-16T04:16:22.258Z,100219.48
2019-01-16T04:21:33.312Z,100207.59
2019-01-16T04:26:47.193Z,100209.06
2019-01-16T04:31:55.129Z,100212.61
2019-01-16T04:37:09.355Z,100201.34
2019-01-16T04:42:28.159Z,100204.03
2019-01-16T04:47:42.518Z,100198.33
2019-01-16T04:52:50.663Z,100200.91
2019-01-16T04:57:58.285Z,100189.60
2019-01-16T05:03:17.659Z,100189.17
2019-01-16T05:08:28.437Z,100185.58
2019-01-16T05:13:42.176Z,100178.58
2019-01-16T05:19:06.494Z,100171.09
2019-01-16T05:24:20.757Z,100174.03
2019-01-16T05:29:34.284Z,100186.88
2019-01-16T05:34:44.667Z,100188.88
2019-01-16T05:40:04.202Z,100201.97
2019-01-16T05:45:22.052Z,100201.59
2019-01-16T05:50:36.512Z,100195.28
2019-01-16T05:55:44.462Z,100212.05
2019-01-16T06:01:08.482Z,100191.80
2019-01-16T06:06:31.458Z,100198.41
2019-01-16T06:11:52.059Z,100202.64
2019-01-16T06:17:02.590Z,100205.12
2019-01-16T06:22:20.246Z,100190.72
2019-01-16T06:27:44.536Z,100204.06
2019-01-16T06:33:10.276Z,100198.95
2019-01-16T06:38:33.252Z,100199.11
2019-01-16T06:43:58.247Z,100205.80
2019-01-16T06:49:09.622Z,100196.69
2019-01-16T06:54:20.708Z,100209.16
2019-01-16T06:59:28.577Z,100215.45
2019-01-16T07:04:54.959Z,100203.78
2019-01-16T07:10:18.606Z,100215.63
2019-01-16T07:15:42.412Z,100212.77
2019-01-16T07:21:06.808Z,100221.14
2019-01-16T07:26:14.517Z,100220.63
2019-01-16T07:31:34.746Z,100219.75
2019-01-16T07:36:43.189Z,100213.30
2019-01-16T07:42:05.302Z,100239.58
2019-01-16T07:47:14.558Z,100221.43
2019-01-16T07:52:25.488Z,100221.29
2019-01-16T07:57:43.009Z,100220.36
2019-01-16T08:03:06.577Z,100224.95
2019-01-16T08:08:14.652Z,100208.08
2019-01-16T08:13:25.599Z,100216.44
2019-01-16T08:18:37.728Z,100224.02
2019-01-16T08:24:02.500Z,100231.45
2019-01-16T08:29:11.203Z,100205.64
2019-01-16T08:34:19.764Z,100203.89
2019-01-16T08:39:36.752Z,100215.62
2019-01-16T08:44:51.482Z,100217.09
2019-01-16T08:50:08.443Z,100214.63
2019-01-16T08:55:16.950Z,100205.44
2019-01-16T09:00:34.903Z,100215.44
2019-01-16T09:05:52.170Z,100211.75
2019-01-16T09:11:12.505Z,100215.47
2019-01-16T09:16:30.775Z,100209.00
2019-01-16T09:21:38.625Z,100212.61
2019-01-16T09:26:46.612Z,100218.48
2019-01-16T09:32:11.515Z,100210.88
2019-01-16T09:37:29.390Z,100217.99
2019-01-16T09:42:44.242Z,100222.97
2019-01-16T09:48:06.743Z,100211.45
2019-01-16T09:53:30.594Z,100207.13
2019-01-16T09:58:51.265Z,100205.96
2019-01-16T10:04:16.287Z,100197.56
2019-01-16T10:09:43.974Z,100196.31
2019-01-16T10:14:52.150Z,100202.88
2019-01-16T10:20:16.477Z,100183.77
2019-01-16T10:25:28.240Z,100189.79
2019-01-16T10:30:42.972Z,100180.02
2019-01-16T10:35:54.677Z,100173.19
2019-01-16T10:41:06.923Z,100167.00
2019-01-16T10:46:23.637Z,100162.42
2019-01-16T10:51:42.972Z,100164.98
2019-01-16T10:56:55.523Z,100154.12
2019-01-16T11:02:03.356Z,100145.72
2019-01-16T11:07:14.337Z,100157.02
2019-01-16T11:12:38.605Z,100127.97
2019-01-16T11:18:03.369Z,100136.69
2019-01-16T11:23:27.674Z,100122.33
2019-01-16T11:28:44.127Z,100118.24
2019-01-16T11:34:05.674Z,100114.45
2019-01-16T11:39:16.324Z,100104.19
2019-01-16T11:44:24.562Z,100106.28
2019-01-16T11:49:32.870Z,100088.08
2019-01-16T11:54:52.106Z,100092.91
2019-01-16T12:00:09.820Z,100091.24
2019-01-16T12:05:36.519Z,100085.98
2019-01-16T12:10:48.642Z,100085.27
2019-01-16T12:16:06.925Z,100069.18
2019-01-16T12:21:26.520Z,100071.88
2019-01-16T12:26:52.156Z,100075.70
2019-01-16T12:32:06.690Z,100048.56
2019-01-16T12:37:35.019Z,100044.68
2019-01-16T12:42:52.102Z,100034.39
2019-01-16T12:48:11.059Z,100030.78
2019-01-16T12:53:39.486Z,100034.39
2019-01-16T12:59:00.636Z,100028.63
2019-01-16T13:04:20.409Z,100022.59
2019-01-16T13:09:29.068Z,100006.01
2019-01-16T13:14:43.024Z,100014.52
2019-01-16T13:19:52.400Z,100011.54
2019-01-16T13:25:03.383Z,100009.27
2019-01-16T13:30:30.621Z,100000.68
2019-01-16T13:35:38.901Z,100015.63
2019-01-16T13:41:03.020Z,99998.05
2019-01-16T13:46:24.635Z,99984.80
2019-01-16T13:51:50.756Z,99986.05
2019-01-16T13:57:01.492Z,99980.66
2019-01-16T14:02:25.982Z,99967.30
2019-01-16T14:07:49.648Z,99980.44
2019-01-16T14:13:09.803Z,99953.84
2019-01-16T14:18:36.380Z,99962.51
2019-01-16T14:23:43.915Z,99955.80
2019-01-16T14:29:11.808Z,99953.13
2019-01-16T14:34:41.474Z,99945.36
2019-01-16T14:39:52.926Z,99940.29
2019-01-16T14:45:04.672Z,99941.66
2019-01-16T14:50:15.232Z,99949.09
2019-01-16T14:55:39.446Z,99953.56
2019-01-16T15:01:06.998Z,99947.61
2019-01-16T15:06:18.352Z,99925.19
2019-01-16T15:11:31.376Z,99935.34
2019-01-16T15:16:52.560Z,99918.16
2019-01-16T15:22:06.443Z,99926.02
2019-01-16T15:27:26.892Z,99916.61
2019-01-16T15:32:52.393Z,99917.41
2019-01-16T15:38:02.785Z,99907.90
2019-01-16T15:43:17.080Z,99909.90
2019-01-16T15:48:39.892Z,99917.75
2019-01-16T15:54:05.185Z,99904.36
2019-01-16T15:59:24.967Z,99906.69
2019-01-16T16:04:33.372Z,99892.04
2019-01-16T16:09:47.072Z,99887.20
2019-01-16T16:14:54.700Z,99891.33
2019-01-16T16:20:19.222Z,99879.17
2019-01-16T16:25:38.721Z,99868.91
2019-01-16T16:31:02.725Z,99856.47
2019-01-16T16:36:19.039Z,99866.03
2019-01-16T16:41:35.608Z,99875.01
2019-01-16T16:46:55.846Z,99844.79
2019-01-16T16:52:25.783Z,99848.17
2019-01-16T16:57:46.030Z,99843.08
2019-01-16T17:02:57.265Z,99862.39
2019-01-16T17:08:17.268Z,99847.59
2019-01-16T17:13:34.765Z,99841.39
2019-01-16T17:18:47.286Z,99826.67
2019-01-16T17:24:04.112Z,99826.42
2019-01-16T17:29:17.943Z,99855.33
2019-01-16T17:34:40.444Z,99817.89
2019-01-16T17:39:57.063Z,99828.64
2019-01-16T17:45:10.049Z,99820.10
2019-01-16T17:50:34.283Z,99815.69
2019-01-16T17:55:43.582Z,99824.82
2019-01-16T18:00:50.912Z,99811.63
2019-01-16T18:05:58.285Z,99786.28
2019-01-16T18:11:11.860Z,99793.86
2019-01-16T18:16:21.211Z,99785.00
2019-01-16T18:21:29.133Z,99774.58
2019-01-16T18:26:39.693Z,99772.04
2019-01-16T18:31:56.808Z,99767.64
2019-01-16T18:37:04.699Z,99767.23
2019-01-16T18:42:13.606Z,99760.39
2019-01-16T18:47:24.274Z,99757.03
2019-01-16T18:52:38.096Z,99752.39
2019-01-16T18:57:56.173Z,99753.88
2019-01-16T19:03:03.537Z,99751.80
2019-01-16T19:08:13.808Z,99745.35
2019-01-16T19:13:39.295Z,99737.46
2019-01-16T19:19:02.989Z,99727.63
2019-01-16T19:24:19.535Z,99740.56
2019-01-16T19:29:40.619Z,99726.31
2019-01-16T19:35:04.574Z,99722.30
2019-01-16T19:40:16.342Z,99698.33
2019-01-16T19:45:41.612Z,99698.17
2019-01-16T19:50:54.357Z,99712.29
2019-01-16T19:56:02.338Z,99696.50
2019-01-16T20:01:09.761Z,99702.08
2019-01-16T20:06:26.146Z,99694.08
2019-01-16T20:11:51.699Z,99682.27
2019-01-16T20:17:07.899Z,99674.19
2019-01-16T20:22:32.504Z,99654.83
2019-01-16T20:27:40.164Z,99641.59
2019-01-16T20:32:50.550Z,99642.55
2019-01-16T20:37:58.430Z,99626.88
2019-01-16T20:43:06.301Z,99634.05
2019-01-16T20:48:19.711Z,99623.86
2019-01-16T20:53:36.818Z,99631.25
2019-01-16T20:58:54.191Z,99642.13
2019-01-16T21:04:18.342Z,99634.13
2019-01-16T21:09:36.837Z,99617.64
2019-01-16T21:14:53.590Z,99616.56
2019-01-16T21:20:08.687Z,99603.78
2019-01-16T21:25:20.158Z,99594.28
2019-01-16T21:30:44.522Z,99584.34
2019-01-16T21:36:08.438Z,99567.24
2019-01-16T21:41:32.188Z,99569.44
2019-01-16T21:46:47.650Z,99563.26
2019-01-16T21:52:01.864Z,99573.41
2019-01-16T21:57:28.997Z,99552.45
2019-01-16T22:02:37.023Z,99539.77
2019-01-16T22:07:46.745Z,99534.84
2019-01-16T22:13:10.088Z,99531.91
2019-01-16T22:18:20.664Z,99506.18
2019-01-16T22:23:43.841Z,99509.89
2019-01-16T22:28:58.499Z,99505.93
2019-01-16T22:34:09.223Z,99499.46
2019-01-16T22:39:32.060Z,99488.34
2019-01-16T22:44:42.348Z,99489.54
2019-01-16T22:49:55.812Z,99485.06
2019-01-16T22:55:06.663Z,99473.88
2019-01-16T23:00:19.743Z,99455.89
2019-01-16T23:05:43.860Z,99458.95
2019-01-16T23:11:00.086Z,99438.70
2019-01-16T23:16:24.351Z,99431.08
2019-01-16T23:21:43.866Z,99420.30
2019-01-16T23:27:08.486Z,99406.23
2019-01-16T23:32:25.138Z,99398.72
2019-01-16T23:37:40.798Z,99387.95
2019-01-16T23:43:05.928Z,99379.76
2019-01-16T23:48:22.036Z,99376.87
2019-01-16T23:53:32.589Z,99369.52
2019-01-16T23:58:55.473Z,99364.07
